Time;durP1;ratioP1;P1;durP2;ratioP2;P2;SDS_P1;SDS_P2;PMS_P1;PMS_P2;Temp;Humidity;BMP_temperature;BMP_pressure;BME280_temperature;BME280_humidity;BME280_pressure;Samples;Min_cycle;Max_cycle;Signal;HPM_P1;HPM_P2
2024/03/06 00:02:24;;;;;;;29.15;15.23;;;;;;;;;;5095946;28;20395;-56
2024/03/06 00:04:50;;;;;;;24.52;13.52;;;;;;;;;;5088570;28;20028;-56
2024/03/06 00:07:16;;;;;;;31.13;15.85;;;;;;;;;;5089246;28;20488;-56
2024/03/06 00:09:43;;;;;;;35.05;15.15;;;;;;;;;;5086629;28;20387;-56
2024/03/06 00:12:09;;;;;;;32.60;16.45;;;;;;;;;;5089040;28;20472;-55
2024/03/06 00:14:36;;;;;;;33.33;14.95;;;;;;;;;;5095092;28;20036;-56
2024/03/06 00:17:04;;;;;;;34.47;16.52;;;;;;;;;;5086390;28;20114;-55
2024/03/06 00:19:31;;;;;;;35.75;16.80;;;;;;;;;;5075727;28;20066;-56
2024/03/06 00:21:58;;;;;;;41.90;17.30;;;;;;;;;;5087707;28;20044;-56
2024/03/06 00:24:23;;;;;;;29.30;15.95;;;;;;;;;;5088357;28;20039;-55
2024/03/06 00:26:49;;;;;;;34.58;16.30;;;;;;;;;;5082455;28;20032;-54
2024/03/06 00:29:15;;;;;;;35.80;16.05;;;;;;;;;;5084300;28;20082;-53
2024/03/06 00:31:45;;;;;;;33.05;16.00;;;;;;;;;;5091395;28;20028;-53
2024/03/06 00:34:13;;;;;;;36.10;16.13;;;;;;;;;;5106277;28;20111;-54
2024/03/06 00:36:39;;;;;;;29.52;14.95;;;;;;;;;;5091990;28;20024;-54
2024/03/06 00:39:05;;;;;;;29.65;15.32;;;;;;;;;;5089818;28;20384;-54
2024/03/06 00:41:31;;;;;;;30.77;15.35;;;;;;;;;;5088248;28;20028;-54
2024/03/06 00:43:57;;;;;;;33.70;16.17;;;;;;;;;;5095106;28;20036;-53
2024/03/06 00:46:23;;;;;;;33.53;16.13;;;;;;;;;;5094981;28;20028;-54
2024/03/06 00:48:49;;;;;;;27.90;14.07;;;;;;;;;;5070427;28;20024;-54
2024/03/06 00:51:15;;;;;;;35.88;15.00;;;;;;;;;;5091242;28;20017;-54
2024/03/06 00:53:41;;;;;;;29.90;14.32;;;;;;;;;;5088219;28;20028;-54
2024/03/06 00:56:07;;;;;;;30.75;14.85;;;;;;;;;;5084636;28;20039;-54
2024/03/06 00:58:33;;;;;;;34.55;14.95;;;;;;;;;;5084671;28;20028;-53
2024/03/06 01:00:59;;;;;;;35.30;15.63;;;;;;;;;;5097061;28;20036;-53
2024/03/06 01:03:25;;;;;;;31.80;15.13;;;;;;;;;;5099693;28;20027;-54
2024/03/06 01:05:55;;;;;;;30.17;14.80;;;;;;;;;;5091409;28;20472;-53
2024/03/06 01:08:24;;;;;;;29.10;14.82;;;;;;;;;;5080553;28;20056;-53
2024/03/06 01:10:50;;;;;;;34.50;15.60;;;;;;;;;;5089183;28;20434;-53
2024/03/06 01:13:16;;;;;;;35.55;16.67;;;;;;;;;;5093207;28;20035;-55
2024/03/06 01:15:42;;;;;;;32.95;16.23;;;;;;;;;;5101655;28;20027;-54
2024/03/06 01:18:08;;;;;;;36.75;16.70;;;;;;;;;;5104725;28;20506;-53
2024/03/06 01:20:35;;;;;;;37.38;16.65;;;;;;;;;;5092584;28;20039;-54
2024/03/06 01:23:01;;;;;;;32.58;16.80;;;;;;;;;;5093826;28;20036;-53
2024/03/06 01:25:27;;;;;;;34.85;16.55;;;;;;;;;;5092628;28;20032;-54
2024/03/06 01:27:53;;;;;;;34.13;15.43;;;;;;;;;;5102064;28;20028;-57
2024/03/06 01:30:19;;;;;;;33.50;16.55;;;;;;;;;;5095125;28;20384;-57
2024/03/06 01:32:46;;;;;;;35.10;17.23;;;;;;;;;;5088526;28;20028;-58
2024/03/06 01:35:12;;;;;;;34.08;17.02;;;;;;;;;;5094655;28;20525;-55
2024/03/06 01:37:38;;;;;;;38.10;17.67;;;;;;;;;;5105555;28;20032;-57
2024/03/06 01:40:04;;;;;;;31.27;15.45;;;;;;;;;;5098098;28;20487;-57
2024/03/06 01:42:30;;;;;;;33.60;16.90;;;;;;;;;;5094700;28;20030;-57
2024/03/06 01:44:56;;;;;;;34.90;16.30;;;;;;;;;;5096571;28;20111;-57
2024/03/06 01:47:22;;;;;;;38.42;16.02;;;;;;;;;;5099388;28;20031;-57
2024/03/06 01:49:48;;;;;;;38.25;16.20;;;;;;;;;;5109517;28;20443;-56
2024/03/06 01:52:15;;;;;;;41.10;16.55;;;;;;;;;;5093958;28;20107;-57
2024/03/06 01:54:41;;;;;;;30.80;15.80;;;;;;;;;;5098651;28;20110;-57
2024/03/06 01:57:08;;;;;;;31.27;15.45;;;;;;;;;;5089804;28;20113;-57
2024/03/06 01:59:34;;;;;;;33.63;16.27;;;;;;;;;;5099111;28;20466;-58
2024/03/06 02:02:01;;;;;;;37.53;16.48;;;;;;;;;;5086300;28;20031;-57
2024/03/06 02:04:28;;;;;;;35.15;17.15;;;;;;;;;;5099803;28;20028;-56
2024/03/06 02:06:54;;;;;;;34.88;16.60;;;;;;;;;;5085478;28;20024;-57
2024/03/06 02:09:20;;;;;;;32.60;15.05;;;;;;;;;;5096810;28;20415;-57
2024/03/06 02:11:46;;;;;;;36.25;17.10;;;;;;;;;;5092654;28;20016;-57
2024/03/06 02:14:13;;;;;;;36.45;16.40;;;;;;;;;;5075818;28;20035;-58
2024/03/06 02:16:39;;;;;;;39.75;17.58;;;;;;;;;;5101803;28;20051;-57
2024/03/06 02:19:05;;;;;;;34.70;16.30;;;;;;;;;;5085413;28;20083;-57
2024/03/06 02:21:31;;;;;;;37.20;16.88;;;;;;;;;;5105270;28;20510;-57
2024/03/06 02:23:58;;;;;;;32.65;15.68;;;;;;;;;;5103741;28;20028;-57
2024/03/06 02:26:24;;;;;;;36.90;16.67;;;;;;;;;;5094369;28;20407;-57
2024/03/06 02:28:51;;;;;;;38.17;16.38;;;;;;;;;;5109767;28;20031;-56
2024/03/06 02:31:17;;;;;;;33.20;16.13;;;;;;;;;;5101693;28;20028;-57
2024/03/06 02:33:49;;;;;;;37.17;17.33;;;;;;;;;;5092439;28;20036;-57
2024/03/06 02:36:18;;;;;;;35.13;16.65;;;;;;;;;;5094154;28;20383;-57
2024/03/06 02:38:45;;;;;;;33.08;15.50;;;;;;;;;;5100371;28;20032;-53
2024/03/06 02:41:11;;;;;;;30.13;15.45;;;;;;;;;;5086247;28;20103;-52
2024/03/06 02:43:38;;;;;;;34.55;15.93;;;;;;;;;;5094117;28;20035;-53
2024/03/06 02:46:04;;;;;;;37.97;17.55;;;;;;;;;;5095246;28;20032;-53
2024/03/06 02:48:30;;;;;;;38.05;17.35;;;;;;;;;;5097709;28;20030;-54
2024/03/06 02:50:56;;;;;;;35.97;16.52;;;;;;;;;;5084954;28;20106;-51
2024/03/06 02:53:22;;;;;;;34.58;15.90;;;;;;;;;;5088389;28;20032;-53
2024/03/06 02:55:49;;;;;;;30.60;15.43;;;;;;;;;;5100543;28;20402;-51
2024/03/06 02:58:16;;;;;;;33.65;16.38;;;;;;;;;;5090989;28;20028;-51
2024/03/06 03:00:42;;;;;;;32.83;16.65;;;;;;;;;;5106524;28;20046;-50
2024/03/06 03:03:08;;;;;;;33.08;16.48;;;;;;;;;;5096944;28;20054;-52
2024/03/06 03:05:34;;;;;;;30.50;15.00;;;;;;;;;;5101227;28;20056;-52
2024/03/06 03:08:00;;;;;;;30.98;16.42;;;;;;;;;;5085804;28;20020;-52
2024/03/06 03:10:26;;;;;;;32.38;15.52;;;;;;;;;;5085894;28;20020;-52
2024/03/06 03:12:52;;;;;;;30.08;14.85;;;;;;;;;;5082189;28;20530;-53
2024/03/06 03:15:18;;;;;;;33.65;15.32;;;;;;;;;;5102896;28;20084;-51
2024/03/06 03:17:44;;;;;;;38.42;17.40;;;;;;;;;;5093603;28;20450;-52
2024/03/06 03:20:11;;;;;;;36.60;15.85;;;;;;;;;;5101902;28;20028;-52
2024/03/06 03:22:40;;;;;;;36.08;15.95;;;;;;;;;;5092745;28;20059;-51
2024/03/06 03:25:08;;;;;;;33.78;16.30;;;;;;;;;;5089789;28;20028;-51
2024/03/06 03:27:34;;;;;;;37.40;16.20;;;;;;;;;;5105059;28;20106;-51
2024/03/06 03:30:00;;;;;;;31.80;15.60;;;;;;;;;;5101765;28;20483;-51
2024/03/06 03:32:26;;;;;;;35.03;16.48;;;;;;;;;;5083479;28;20444;-50
2024/03/06 03:34:52;;;;;;;37.00;15.93;;;;;;;;;;5090624;28;20035;-51
2024/03/06 03:37:18;;;;;;;34.92;17.02;;;;;;;;;;5101915;28;20024;-52
2024/03/06 03:39:44;;;;;;;37.08;16.75;;;;;;;;;;5093206;28;20089;-53
2024/03/06 03:42:10;;;;;;;37.28;17.80;;;;;;;;;;5098069;28;20020;-53
2024/03/06 03:44:36;;;;;;;35.28;16.35;;;;;;;;;;5087688;28;20039;-53
2024/03/06 03:47:02;;;;;;;36.63;17.63;;;;;;;;;;5099281;28;20088;-56
2024/03/06 03:49:28;;;;;;;39.35;16.77;;;;;;;;;;5099298;28;20031;-56
2024/03/06 03:51:54;;;;;;;34.50;16.27;;;;;;;;;;5100409;28;20029;-56
2024/03/06 03:54:20;;;;;;;35.15;16.38;;;;;;;;;;5092465;28;20028;-55
2024/03/06 03:56:46;;;;;;;37.35;16.35;;;;;;;;;;5105626;28;20034;-53
2024/03/06 03:59:12;;;;;;;35.72;17.25;;;;;;;;;;5087998;28;20103;-51
2024/03/06 04:01:38;;;;;;;35.88;16.27;;;;;;;;;;5093239;28;20662;-54
2024/03/06 04:04:04;;;;;;;33.00;16.33;;;;;;;;;;5105472;28;20034;-51
2024/03/06 04:06:30;;;;;;;34.28;16.30;;;;;;;;;;5104297;28;20027;-52
2024/03/06 04:08:56;;;;;;;33.90;16.95;;;;;;;;;;5097931;28;20391;-53
2024/03/06 04:11:22;;;;;;;35.45;16.00;;;;;;;;;;5093737;28;20023;-52
2024/03/06 04:13:48;;;;;;;37.55;15.70;;;;;;;;;;5092258;28;20040;-52
2024/03/06 04:16:18;;;;;;;35.90;16.00;;;;;;;;;;5104234;28;20442;-53
2024/03/06 04:18:45;;;;;;;36.40;17.23;;;;;;;;;;5095145;28;20048;-52
2024/03/06 04:21:11;;;;;;;31.90;15.43;;;;;;;;;;5102703;28;20035;-53
2024/03/06 04:23:37;;;;;;;33.47;16.45;;;;;;;;;;5098349;28;20052;-53
2024/03/06 04:26:03;;;;;;;41.35;17.90;;;;;;;;;;5110137;28;20099;-52
2024/03/06 04:28:30;;;;;;;40.60;17.25;;;;;;;;;;5071199;28;20027;-54
2024/03/06 04:30:56;;;;;;;38.78;16.90;;;;;;;;;;5090311;28;20091;-52
2024/03/06 04:33:22;;;;;;;36.42;16.42;;;;;;;;;;5086256;28;20036;-52
2024/03/06 04:35:48;;;;;;;41.08;17.92;;;;;;;;;;5088027;28;20372;-52
2024/03/06 04:38:14;;;;;;;48.42;18.20;;;;;;;;;;5096310;28;20475;-53
2024/03/06 04:40:41;;;;;;;44.67;18.23;;;;;;;;;;5093610;28;20031;-51
2024/03/06 04:43:07;;;;;;;39.50;16.45;;;;;;;;;;5095991;28;20032;-53
2024/03/06 04:45:33;;;;;;;38.95;17.17;;;;;;;;;;5095885;28;20430;-53
2024/03/06 04:47:59;;;;;;;37.67;16.23;;;;;;;;;;5088347;28;20048;-52
2024/03/06 04:50:27;;;;;;;39.30;17.73;;;;;;;;;;5108019;28;20028;-50
2024/03/06 04:52:53;;;;;;;37.38;16.45;;;;;;;;;;5104255;28;20387;-51
2024/03/06 04:55:22;;;;;;;37.50;17.15;;;;;;;;;;5094522;28;20028;-53
2024/03/06 04:57:49;;;;;;;36.50;17.48;;;;;;;;;;5095199;28;20028;-51
2024/03/06 05:00:15;;;;;;;38.03;17.58;;;;;;;;;;5095887;28;20055;-52
2024/03/06 05:02:41;;;;;;;42.08;17.55;;;;;;;;;;5086550;28;20032;-55
2024/03/06 05:05:08;;;;;;;36.20;16.95;;;;;;;;;;5090941;28;20039;-52
2024/03/06 05:07:34;;;;;;;34.92;16.98;;;;;;;;;;5081335;28;20029;-56
2024/03/06 05:10:00;;;;;;;37.42;16.95;;;;;;;;;;5090147;28;20171;-54
2024/03/06 05:12:27;;;;;;;41.78;17.45;;;;;;;;;;5087485;28;20028;-54
2024/03/06 05:14:53;;;;;;;38.13;18.27;;;;;;;;;;5091119;28;20471;-54
2024/03/06 05:17:20;;;;;;;35.88;17.42;;;;;;;;;;5085799;28;20044;-55
2024/03/06 05:19:47;;;;;;;38.97;16.63;;;;;;;;;;5090123;28;20110;-55
2024/03/06 05:22:13;;;;;;;42.38;18.13;;;;;;;;;;5097909;28;20401;-53
2024/03/06 05:24:39;;;;;;;37.72;17.88;;;;;;;;;;5089408;28;20037;-53
2024/03/06 05:27:05;;;;;;;38.33;17.95;;;;;;;;;;5094119;28;20035;-53
2024/03/06 05:29:31;;;;;;;35.95;17.52;;;;;;;;;;5082482;28;20066;-54
2024/03/06 05:31:57;;;;;;;41.58;18.73;;;;;;;;;;5099253;28;20034;-54
2024/03/06 05:34:23;;;;;;;37.08;17.25;;;;;;;;;;5079825;28;20025;-54
2024/03/06 05:36:49;;;;;;;38.38;17.65;;;;;;;;;;5086453;28;20027;-54
2024/03/06 05:39:17;;;;;;;40.15;17.58;;;;;;;;;;5083322;28;20020;-56
2024/03/06 05:41:43;;;;;;;38.25;16.48;;;;;;;;;;5091896;28;20485;-55
2024/03/06 05:44:09;;;;;;;33.65;15.85;;;;;;;;;;5110212;28;20024;-56
2024/03/06 05:46:35;;;;;;;33.28;17.20;;;;;;;;;;5099550;28;20054;-56
2024/03/06 05:49:02;;;;;;;35.30;16.27;;;;;;;;;;5094094;28;20035;-55
2024/03/06 05:51:28;;;;;;;32.28;16.27;;;;;;;;;;5087392;28;20019;-54
2024/03/06 05:53:54;;;;;;;38.97;17.02;;;;;;;;;;5096680;28;20399;-56
2024/03/06 05:56:20;;;;;;;46.97;17.23;;;;;;;;;;5095399;28;20099;-55
2024/03/06 05:58:46;;;;;;;35.28;17.75;;;;;;;;;;5077774;28;20032;-55
2024/03/06 06:01:15;;;;;;;45.28;17.33;;;;;;;;;;5098793;28;20063;-53
2024/03/06 06:03:41;;;;;;;35.05;15.93;;;;;;;;;;5100240;28;20039;-55
2024/03/06 06:06:08;;;;;;;39.30;17.35;;;;;;;;;;5099499;28;20034;-55
2024/03/06 06:08:34;;;;;;;41.90;17.17;;;;;;;;;;5093918;28;20042;-53
2024/03/06 06:11:00;;;;;;;41.58;17.08;;;;;;;;;;5093253;28;20036;-53
2024/03/06 06:13:26;;;;;;;39.05;16.83;;;;;;;;;;5095481;28;20040;-54
2024/03/06 06:15:52;;;;;;;39.03;17.23;;;;;;;;;;5100639;28;20077;-52
2024/03/06 06:18:18;;;;;;;34.95;15.70;;;;;;;;;;5074672;28;20043;-57
2024/03/06 06:20:44;;;;;;;38.88;16.95;;;;;;;;;;5077417;28;20399;-55
2024/03/06 06:23:10;;;;;;;39.90;16.73;;;;;;;;;;5065471;28;20032;-58
2024/03/06 06:25:36;;;;;;;33.63;16.00;;;;;;;;;;5079389;28;20031;-57
2024/03/06 06:28:02;;;;;;;37.25;16.30;;;;;;;;;;5072969;28;20028;-56
2024/03/06 06:30:28;;;;;;;37.92;16.55;;;;;;;;;;5078344;28;20106;-57
2024/03/06 06:32:54;;;;;;;37.00;17.23;;;;;;;;;;5080057;28;20464;-57
2024/03/06 06:35:20;;;;;;;36.67;15.93;;;;;;;;;;5084418;28;20024;-57
2024/03/06 06:37:46;;;;;;;35.38;16.88;;;;;;;;;;5073217;28;20024;-57
2024/03/06 06:40:12;;;;;;;42.67;16.70;;;;;;;;;;5072340;28;20028;-57
2024/03/06 06:42:44;;;;;;;40.53;16.88;;;;;;;;;;5072253;28;20028;-58
2024/03/06 06:45:10;;;;;;;38.22;17.27;;;;;;;;;;5072567;28;20039;-57
2024/03/06 06:47:36;;;;;;;31.63;15.43;;;;;;;;;;5072798;28;20021;-57
2024/03/06 06:50:06;;;;;;;34.55;16.23;;;;;;;;;;5074298;28;20566;-57
2024/03/06 06:52:33;;;;;;;35.47;15.95;;;;;;;;;;5078884;28;20067;-57
2024/03/06 06:54:59;;;;;;;37.88;17.95;;;;;;;;;;5081291;28;20036;-58
2024/03/06 06:57:25;;;;;;;37.63;15.82;;;;;;;;;;5054348;28;20028;-57
2024/03/06 06:59:52;;;;;;;35.15;16.20;;;;;;;;;;5072567;28;20460;-57
2024/03/06 07:02:18;;;;;;;41.50;16.88;;;;;;;;;;5071686;28;20035;-57
2024/03/06 07:04:44;;;;;;;35.13;15.40;;;;;;;;;;5072211;28;20027;-57
2024/03/06 07:07:10;;;;;;;41.42;16.95;;;;;;;;;;5074015;28;20034;-57
2024/03/06 07:09:36;;;;;;;35.20;16.42;;;;;;;;;;5071848;28;20810;-57
2024/03/06 07:12:02;;;;;;;37.28;16.75;;;;;;;;;;5067305;28;20021;-57
2024/03/06 07:14:28;;;;;;;38.13;16.70;;;;;;;;;;5071171;28;20020;-57
2024/03/06 07:16:54;;;;;;;38.58;17.00;;;;;;;;;;5083002;28;20159;-57
2024/03/06 07:19:20;;;;;;;38.00;17.92;;;;;;;;;;5080551;28;20028;-57
2024/03/06 07:21:47;;;;;;;42.63;16.42;;;;;;;;;;5091163;28;20407;-58
2024/03/06 07:24:13;;;;;;;39.38;16.42;;;;;;;;;;5091997;28;20435;-58
2024/03/06 07:26:39;;;;;;;34.20;16.85;;;;;;;;;;5090559;28;20020;-58
2024/03/06 07:29:12;;;;;;;36.17;16.83;;;;;;;;;;5083064;28;20024;-54
2024/03/06 07:31:39;;;;;;;40.35;19.38;;;;;;;;;;5053499;28;20060;-54
2024/03/06 07:34:06;;;;;;;40.67;18.33;;;;;;;;;;5076669;28;20484;-55
2024/03/06 07:36:33;;;;;;;42.33;18.30;;;;;;;;;;5091896;28;20468;-54
2024/03/06 07:38:59;;;;;;;38.67;17.23;;;;;;;;;;5091057;28;20078;-55
2024/03/06 07:41:25;;;;;;;47.50;18.77;;;;;;;;;;5091785;28;20032;-56
2024/03/06 07:43:51;;;;;;;43.20;19.27;;;;;;;;;;5091471;28;20039;-55
2024/03/06 07:46:17;;;;;;;42.15;18.95;;;;;;;;;;5091305;28;20031;-54
2024/03/06 07:48:46;;;;;;;40.42;19.08;;;;;;;;;;5086654;28;20020;-53
2024/03/06 07:51:12;;;;;;;43.90;20.05;;;;;;;;;;5091424;28;20035;-54
2024/03/06 07:53:38;;;;;;;41.95;18.65;;;;;;;;;;5075239;28;20033;-53
2024/03/06 07:56:04;;;;;;;33.78;17.17;;;;;;;;;;5069939;28;20032;-55
2024/03/06 07:58:31;;;;;;;41.13;18.77;;;;;;;;;;5091699;28;20086;-54
2024/03/06 08:00:57;;;;;;;43.10;18.75;;;;;;;;;;5091191;28;20447;-54
2024/03/06 08:03:24;;;;;;;40.65;19.65;;;;;;;;;;5089605;28;20503;-55
2024/03/06 08:05:53;;;;;;;36.67;19.50;;;;;;;;;;5080086;28;20016;-55
2024/03/06 08:08:19;;;;;;;46.05;19.17;;;;;;;;;;5090020;28;20500;-54
2024/03/06 08:10:45;;;;;;;39.63;20.08;;;;;;;;;;5089963;28;20031;-55
2024/03/06 08:13:11;;;;;;;37.10;18.58;;;;;;;;;;5086288;28;20032;-54
2024/03/06 08:15:37;;;;;;;36.22;18.08;;;;;;;;;;5091410;28;20031;-55
2024/03/06 08:18:03;;;;;;;35.22;18.38;;;;;;;;;;5081011;28;20051;-54
2024/03/06 08:20:29;;;;;;;40.15;19.35;;;;;;;;;;5079991;28;20035;-54
2024/03/06 08:22:56;;;;;;;34.92;18.48;;;;;;;;;;5088955;28;20472;-55
2024/03/06 08:25:22;;;;;;;37.47;18.40;;;;;;;;;;5090477;28;20067;-53
2024/03/06 08:27:49;;;;;;;35.55;18.08;;;;;;;;;;5090930;28;20365;-55
2024/03/06 08:30:15;;;;;;;38.80;18.83;;;;;;;;;;5091156;28;20030;-55
2024/03/06 08:32:43;;;;;;;35.58;17.30;;;;;;;;;;5089909;28;20089;-55
2024/03/06 08:35:12;;;;;;;35.13;17.75;;;;;;;;;;5091315;28;20426;-54
2024/03/06 08:37:41;;;;;;;36.67;17.90;;;;;;;;;;5087761;28;20024;-53
2024/03/06 08:40:10;;;;;;;32.92;17.77;;;;;;;;;;5080864;28;20021;-52
2024/03/06 08:42:36;;;;;;;33.88;17.40;;;;;;;;;;5086778;28;20036;-51
2024/03/06 08:45:02;;;;;;;34.85;17.27;;;;;;;;;;5091182;28;20020;-54
2024/03/06 08:47:28;;;;;;;34.92;18.15;;;;;;;;;;5055338;28;20496;-54
2024/03/06 08:49:54;;;;;;;34.75;16.65;;;;;;;;;;5070885;28;20095;-51
2024/03/06 08:52:21;;;;;;;38.95;18.23;;;;;;;;;;5070524;28;20028;-55
2024/03/06 08:54:47;;;;;;;37.10;17.73;;;;;;;;;;5053355;28;20032;-54
2024/03/06 08:57:13;;;;;;;33.80;16.80;;;;;;;;;;5089920;28;20093;-53
2024/03/06 08:59:39;;;;;;;31.90;16.77;;;;;;;;;;5091064;28;20036;-54
2024/03/06 09:02:15;;;;;;;33.80;16.48;;;;;;;;;;5090656;28;20043;-52
2024/03/06 09:04:42;;;;;;;31.95;17.02;;;;;;;;;;5078699;28;20016;-54
2024/03/06 09:07:07;;;;;;;33.58;16.95;;;;;;;;;;5084195;28;20021;-53
2024/03/06 09:09:34;;;;;;;33.42;17.40;;;;;;;;;;5070468;28;20095;-53
2024/03/06 09:12:01;;;;;;;30.02;15.98;;;;;;;;;;5085433;28;20034;-53
2024/03/06 09:14:26;;;;;;;35.13;17.60;;;;;;;;;;5090794;28;20103;-52
2024/03/06 09:16:54;;;;;;;35.13;17.48;;;;;;;;;;5090207;28;20051;-50
2024/03/06 09:19:19;;;;;;;33.83;16.75;;;;;;;;;;5080986;28;20031;-54
2024/03/06 09:21:45;;;;;;;37.05;16.92;;;;;;;;;;5092987;28;20024;-54
2024/03/06 09:24:11;;;;;;;37.13;17.80;;;;;;;;;;5093027;28;20024;-52
2024/03/06 09:26:37;;;;;;;32.40;16.67;;;;;;;;;;5094366;28;20104;-54
2024/03/06 09:29:04;;;;;;;29.67;16.63;;;;;;;;;;5094502;28;20035;-53
2024/03/06 09:31:29;;;;;;;31.65;15.68;;;;;;;;;;5085426;28;20581;-54
2024/03/06 09:33:55;;;;;;;25.20;14.40;;;;;;;;;;5086376;28;20031;-53
2024/03/06 09:36:21;;;;;;;29.23;15.23;;;;;;;;;;5090938;28;20028;-52
2024/03/06 09:38:47;;;;;;;26.27;14.30;;;;;;;;;;5084934;28;20100;-54
2024/03/06 09:41:13;;;;;;;26.90;15.20;;;;;;;;;;5082230;28;20418;-53
2024/03/06 09:43:41;;;;;;;28.08;14.82;;;;;;;;;;5089359;28;20074;-53
2024/03/06 09:46:07;;;;;;;29.80;15.15;;;;;;;;;;5094147;28;20067;-53
2024/03/06 09:48:34;;;;;;;25.67;14.45;;;;;;;;;;5090947;28;20424;-59
2024/03/06 09:51:03;;;;;;;24.42;13.10;;;;;;;;;;5093895;28;20027;-59
2024/03/06 09:53:29;;;;;;;22.83;12.73;;;;;;;;;;5093393;28;20115;-58
2024/03/06 09:55:55;;;;;;;20.10;11.65;;;;;;;;;;5088906;28;20043;-59
2024/03/06 09:58:21;;;;;;;21.92;12.48;;;;;;;;;;5093967;28;20042;-58
2024/03/06 10:00:48;;;;;;;25.35;12.63;;;;;;;;;;5093873;28;20410;-58
2024/03/06 10:03:14;;;;;;;22.92;11.75;;;;;;;;;;5091201;28;20027;-59
2024/03/06 10:05:43;;;;;;;21.13;12.32;;;;;;;;;;5080440;28;20471;-58
2024/03/06 10:08:09;;;;;;;19.58;10.57;;;;;;;;;;5093637;28;20062;-59
2024/03/06 10:10:36;;;;;;;20.73;10.50;;;;;;;;;;5084857;28;20562;-59
2024/03/06 10:13:02;;;;;;;21.20;10.85;;;;;;;;;;5086641;28;20159;-59
2024/03/06 10:15:29;;;;;;;18.23;9.32;;;;;;;;;;5087591;28;20436;-59
2024/03/06 10:18:12;;;;;;;20.63;9.60;;;;;;;;;;5077190;28;20122;-59
2024/03/06 10:20:38;;;;;;;14.25;7.93;;;;;;;;;;5067250;28;20408;-59
2024/03/06 10:23:04;;;;;;;15.55;8.35;;;;;;;;;;5087046;28;20039;-58
2024/03/06 10:25:30;;;;;;;13.20;7.70;;;;;;;;;;5092581;28;20158;-59
2024/03/06 10:28:06;;;;;;;15.50;8.50;;;;;;;;;;5084491;28;20040;-58
2024/03/06 10:30:35;;;;;;;13.13;7.22;;;;;;;;;;5089464;28;20051;-56
2024/03/06 10:33:01;;;;;;;11.52;6.75;;;;;;;;;;5091116;28;20492;-58
2024/03/06 10:35:27;;;;;;;13.52;7.55;;;;;;;;;;5083910;28;20036;-58
2024/03/06 10:37:54;;;;;;;15.30;7.47;;;;;;;;;;5089170;28;20035;-59
2024/03/06 10:40:21;;;;;;;11.25;6.22;;;;;;;;;;5092116;28;20068;-59
2024/03/06 10:42:47;;;;;;;11.75;6.15;;;;;;;;;;5089676;28;20491;-58
2024/03/06 10:45:17;;;;;;;11.13;5.80;;;;;;;;;;5093072;28;20024;-59
2024/03/06 10:47:50;;;;;;;10.10;5.95;;;;;;;;;;5085696;28;20401;-53
2024/03/06 10:50:16;;;;;;;11.27;6.70;;;;;;;;;;5084324;28;20055;-54
2024/03/06 10:52:42;;;;;;;10.38;6.15;;;;;;;;;;5078977;28;20028;-54
2024/03/06 10:55:10;;;;;;;9.35;6.00;;;;;;;;;;5081354;28;20024;-55
2024/03/06 10:57:37;;;;;;;9.70;5.18;;;;;;;;;;5072960;28;20031;-59
2024/03/06 11:00:03;;;;;;;6.70;4.10;;;;;;;;;;5085530;28;20035;-59
2024/03/06 11:02:29;;;;;;;4.45;3.05;;;;;;;;;;5092057;28;20039;-58
2024/03/06 11:04:55;;;;;;;6.00;3.70;;;;;;;;;;5078933;28;20067;-59
2024/03/06 11:07:21;;;;;;;7.13;3.47;;;;;;;;;;5092480;28;20095;-58
2024/03/06 11:09:48;;;;;;;3.65;2.85;;;;;;;;;;5092500;28;20107;-59
2024/03/06 11:12:32;;;;;;;5.65;3.42;;;;;;;;;;5079994;28;20028;-59
2024/03/06 11:14:58;;;;;;;4.53;3.28;;;;;;;;;;5092436;28;20032;-58
2024/03/06 11:17:28;;;;;;;6.25;3.42;;;;;;;;;;5082937;28;20062;-59
2024/03/06 11:20:00;;;;;;;5.13;3.30;;;;;;;;;;5089451;28;20024;-59
2024/03/06 11:22:46;;;;;;;6.72;4.28;;;;;;;;;;5089983;28;20111;-58
2024/03/06 11:25:32;;;;;;;9.43;4.30;;;;;;;;;;5092065;28;20166;-58
2024/03/06 11:28:04;;;;;;;7.65;4.28;;;;;;;;;;5085522;28;20040;-58
2024/03/06 11:30:31;;;;;;;8.05;4.25;;;;;;;;;;5098006;28;20479;-57
2024/03/06 11:33:00;;;;;;;6.70;4.07;;;;;;;;;;5091537;28;20096;-58
2024/03/06 11:35:28;;;;;;;7.28;4.43;;;;;;;;;;5091734;28;20064;-58
2024/03/06 11:37:54;;;;;;;9.77;5.35;;;;;;;;;;5092051;28;20031;-58
2024/03/06 11:40:27;;;;;;;9.05;5.18;;;;;;;;;;5092045;28;20020;-58
2024/03/06 11:42:53;;;;;;;12.65;5.88;;;;;;;;;;5089287;28;20036;-57
2024/03/06 11:45:25;;;;;;;12.57;5.60;;;;;;;;;;5091171;28;20024;-58
2024/03/06 11:48:01;;;;;;;11.43;5.80;;;;;;;;;;5088189;28;20387;-58
2024/03/06 11:50:31;;;;;;;9.35;5.80;;;;;;;;;;5092080;28;20125;-59
2024/03/06 11:52:58;;;;;;;13.25;8.70;;;;;;;;;;5091092;28;20028;-58
2024/03/06 11:55:26;;;;;;;13.45;8.63;;;;;;;;;;5091537;28;20046;-59
2024/03/06 11:57:55;;;;;;;15.07;8.52;;;;;;;;;;5082004;28;20111;-59
2024/03/06 12:00:23;;;;;;;13.00;7.85;;;;;;;;;;5088979;28;20046;-59
2024/03/06 12:02:49;;;;;;;10.23;6.85;;;;;;;;;;5091231;28;20031;-57
2024/03/06 12:05:15;;;;;;;10.32;6.03;;;;;;;;;;5091516;28;20031;-59
2024/03/06 12:07:50;;;;;;;12.93;6.65;;;;;;;;;;5091706;28;20020;-58
2024/03/06 12:10:17;;;;;;;12.20;7.35;;;;;;;;;;5091484;28;20035;-58
2024/03/06 12:12:44;;;;;;;10.70;6.75;;;;;;;;;;5087425;28;20073;-57
2024/03/06 12:15:11;;;;;;;12.45;7.05;;;;;;;;;;5091553;28;20039;-58
2024/03/06 12:17:48;;;;;;;13.38;8.00;;;;;;;;;;5091177;28;20125;-58
2024/03/06 12:20:18;;;;;;;14.23;7.63;;;;;;;;;;5091414;28;20024;-58
2024/03/06 12:22:45;;;;;;;11.65;7.18;;;;;;;;;;5082101;28;20115;-58
2024/03/06 12:25:10;;;;;;;8.88;6.18;;;;;;;;;;5090982;28;20080;-58
2024/03/06 12:27:37;;;;;;;12.32;6.45;;;;;;;;;;5101424;28;20440;-59
2024/03/06 12:30:08;;;;;;;12.82;7.28;;;;;;;;;;5101055;28;20032;-58
2024/03/06 12:32:34;;;;;;;12.40;7.43;;;;;;;;;;5090916;28;20020;-59
2024/03/06 12:35:00;;;;;;;10.30;6.18;;;;;;;;;;5091052;28;20395;-58
2024/03/06 12:37:32;;;;;;;10.68;5.97;;;;;;;;;;5091255;28;20097;-59
2024/03/06 12:39:58;;;;;;;8.82;5.72;;;;;;;;;;5077950;28;20048;-59
2024/03/06 12:42:25;;;;;;;9.60;5.60;;;;;;;;;;5096990;28;20081;-59
2024/03/06 12:44:51;;;;;;;7.13;4.28;;;;;;;;;;5091135;28;20052;-59
2024/03/06 12:47:17;;;;;;;10.40;5.43;;;;;;;;;;5090882;28;20012;-59
2024/03/06 12:49:43;;;;;;;7.20;4.65;;;;;;;;;;5091059;28;20027;-59
2024/03/06 12:52:09;;;;;;;6.15;4.25;;;;;;;;;;5090714;28;20025;-59
2024/03/06 12:54:35;;;;;;;7.93;4.75;;;;;;;;;;5090806;28;20062;-59
2024/03/06 12:57:02;;;;;;;8.63;4.82;;;;;;;;;;5095500;28;20028;-59
2024/03/06 12:59:28;;;;;;;7.07;4.60;;;;;;;;;;5095449;28;20098;-58
2024/03/06 13:01:54;;;;;;;7.18;4.93;;;;;;;;;;5099396;28;20503;-59
2024/03/06 13:04:20;;;;;;;7.35;4.47;;;;;;;;;;5094445;28;20384;-58
2024/03/06 13:06:46;;;;;;;7.90;4.75;;;;;;;;;;5095133;28;20039;-55
2024/03/06 13:09:12;;;;;;;7.93;5.10;;;;;;;;;;5094669;28;20027;-56
2024/03/06 13:11:38;;;;;;;7.60;5.15;;;;;;;;;;5095026;28;20024;-56
2024/03/06 13:14:04;;;;;;;7.47;4.68;;;;;;;;;;5103447;28;20490;-54
2024/03/06 13:16:30;;;;;;;8.25;5.35;;;;;;;;;;5107201;28;20499;-56
2024/03/06 13:18:57;;;;;;;7.72;4.75;;;;;;;;;;5094958;28;20564;-56
2024/03/06 13:21:23;;;;;;;10.40;4.45;;;;;;;;;;5095038;28;20464;-57
2024/03/06 13:23:49;;;;;;;6.32;4.40;;;;;;;;;;5094211;28;20119;-56
2024/03/06 13:26:15;;;;;;;6.25;4.10;;;;;;;;;;5094751;28;20099;-56
2024/03/06 13:28:41;;;;;;;8.25;5.55;;;;;;;;;;5096360;28;20024;-55
2024/03/06 13:31:07;;;;;;;7.45;4.95;;;;;;;;;;5095100;28;20494;-56
2024/03/06 13:33:34;;;;;;;7.32;4.90;;;;;;;;;;5082863;28;20043;-55
2024/03/06 13:35:59;;;;;;;7.85;4.80;;;;;;;;;;5100725;28;20030;-54
2024/03/06 13:38:25;;;;;;;8.52;5.28;;;;;;;;;;5100159;28;20032;-56
2024/03/06 13:40:51;;;;;;;7.70;5.00;;;;;;;;;;5105003;28;20097;-55
2024/03/06 13:43:22;;;;;;;8.77;5.75;;;;;;;;;;5099480;28;20030;-55
2024/03/06 13:45:49;;;;;;;11.95;6.20;;;;;;;;;;5097085;28;20515;-55
2024/03/06 13:48:15;;;;;;;11.30;6.18;;;;;;;;;;5094867;28;20024;-55
2024/03/06 13:50:43;;;;;;;11.95;6.45;;;;;;;;;;5094203;28;20023;-54
2024/03/06 13:53:09;;;;;;;12.60;6.50;;;;;;;;;;5093797;28;20084;-55
2024/03/06 13:55:35;;;;;;;16.98;7.47;;;;;;;;;;5097965;28;20028;-53
2024/03/06 13:58:01;;;;;;;10.93;7.10;;;;;;;;;;5097326;28;20062;-55
2024/03/06 14:00:27;;;;;;;14.00;8.07;;;;;;;;;;5097365;28;20192;-55
2024/03/06 14:02:53;;;;;;;12.77;7.70;;;;;;;;;;5093712;28;20055;-53
2024/03/06 14:05:24;;;;;;;14.15;7.93;;;;;;;;;;5098298;28;20384;-54
2024/03/06 14:07:50;;;;;;;13.85;7.97;;;;;;;;;;5094472;28;20031;-53
2024/03/06 14:10:19;;;;;;;14.70;8.30;;;;;;;;;;5106096;28;20031;-53
2024/03/06 14:12:45;;;;;;;18.08;8.38;;;;;;;;;;5094287;28;20460;-54
2024/03/06 14:15:16;;;;;;;17.17;8.38;;;;;;;;;;5095831;28;20103;-53
2024/03/06 14:17:42;;;;;;;16.23;8.82;;;;;;;;;;5090818;28;20044;-54
2024/03/06 14:20:08;;;;;;;17.08;8.38;;;;;;;;;;5093017;28;20039;-55
2024/03/06 14:22:35;;;;;;;19.63;9.15;;;;;;;;;;5095398;28;20390;-55